createdAt,value
2019-03-11T00:00:52.137Z,99.99
2019-03-11T00:01:52.132Z,99.99
2019-03-11T00:02:52.102Z,99.99
2019-03-11T00:03:52.090Z,99.99
2019-03-11T00:04:52.115Z,99.99
2019-03-11T00:05:52.068Z,99.99
2019-03-11T00:06:52.066Z,99.99
2019-03-11T00:07:52.046Z,99.99
2019-03-11T00:08:52.036Z,99.99
2019-03-11T00:09:52.024Z,99.99
2019-03-11T00:10:52.040Z,99.99
2019-03-11T00:11:52.005Z,99.99
2019-03-11T00:12:51.997Z,99.99
2019-03-11T00:13:51.986Z,99.99
2019-03-11T00:14:51.970Z,99.99
2019-03-11T00:15:51.958Z,99.99
2019-03-11T00:16:51.986Z,99.99
2019-03-11T00:17:51.935Z,99.99
2019-03-11T00:18:51.934Z,99.99
2019-03-11T00:19:51.914Z,99.99
2019-03-11T00:20:51.904Z,99.99
2019-03-11T00:21:51.890Z,99.99
2019-03-11T00:22:51.918Z,99.99
2019-03-11T00:23:51.870Z,99.99
2019-03-11T00:24:51.863Z,99.99
2019-03-11T00:25:51.853Z,99.99
2019-03-11T00:26:51.838Z,99.99
2019-03-11T00:27:51.827Z,99.99
2019-03-11T00:28:51.826Z,99.99
2019-03-11T00:29:51.802Z,99.99
2019-03-11T00:30:51.800Z,99.99
2019-03-11T00:31:51.779Z,99.99
2019-03-11T00:32:51.772Z,99.99
2019-03-11T00:33:51.790Z,99.99
2019-03-11T00:34:51.746Z,99.99
2019-03-11T00:35:51.736Z,99.99
2019-03-11T00:36:51.734Z,99.99
2019-03-11T00:37:51.715Z,99.99
2019-03-11T00:38:51.704Z,99.99
2019-03-11T00:39:51.708Z,99.99
2019-03-11T00:40:51.681Z,99.99
2019-03-11T00:41:51.674Z,99.99
2019-03-11T00:42:51.664Z,99.99
2019-03-11T00:43:51.672Z,99.99
2019-03-11T00:44:51.637Z,99.99
2019-03-11T00:45:51.625Z,99.99
2019-03-11T00:46:51.614Z,99.99
2019-03-11T00:48:01.462Z,99.99
2019-03-11T00:48:52.615Z,99.99
2019-03-11T00:49:51.589Z,99.99
2019-03-11T00:50:51.572Z,99.99
2019-03-11T00:51:51.558Z,99.99
2019-03-11T00:52:51.547Z,99.99
2019-03-11T00:53:51.536Z,99.99
2019-03-11T00:54:51.537Z,99.99
2019-03-11T00:55:51.521Z,99.99
2019-03-11T00:56:51.503Z,99.99
2019-03-11T00:57:51.493Z,99.99
2019-03-11T00:58:51.482Z,99.99
2019-03-11T00:59:51.493Z,99.99
2019-03-11T01:00:51.457Z,99.99
2019-03-11T01:01:51.456Z,99.99
2019-03-11T01:02:51.437Z,99.99
2019-03-11T01:03:51.427Z,99.99
2019-03-11T01:04:51.415Z,99.99
2019-03-11T01:05:51.431Z,99.99
2019-03-11T01:06:51.392Z,99.99
2019-03-11T01:07:51.388Z,99.99
2019-03-11T01:08:51.371Z,99.99
2019-03-11T01:09:51.359Z,99.99
2019-03-11T01:10:51.350Z,99.99
2019-03-11T01:11:51.353Z,99.99
2019-03-11T01:12:51.327Z,99.99
2019-03-11T01:13:51.325Z,99.99
2019-03-11T01:14:51.305Z,99.99
2019-03-11T01:15:51.295Z,99.99
2019-03-11T01:16:51.294Z,99.99
2019-03-11T01:17:51.285Z,99.99
2019-03-11T01:18:51.260Z,99.99
2019-03-11T01:19:51.254Z,99.99
2019-03-11T01:20:51.236Z,99.85
2019-03-11T01:21:51.233Z,99.44
2019-03-11T01:22:51.232Z,99.65
2019-03-11T01:23:51.203Z,99.75
2019-03-11T01:24:51.209Z,99.75
2019-03-11T01:25:51.194Z,99.54
2019-03-11T01:26:51.172Z,99.80
2019-03-11T01:27:51.190Z,99.33
2019-03-11T01:28:51.234Z,99.85
2019-03-11T01:29:51.142Z,99.65
2019-03-11T01:30:51.127Z,99.80
2019-03-11T01:31:51.119Z,99.99
2019-03-11T01:32:51.107Z,99.99
2019-03-11T01:33:51.133Z,99.99
2019-03-11T01:34:51.082Z,99.99
2019-03-11T01:35:51.073Z,99.99
2019-03-11T01:36:51.061Z,99.99
2019-03-11T01:37:51.057Z,99.99
2019-03-11T01:38:51.040Z,99.99
2019-03-11T01:39:51.047Z,99.99
2019-03-11T01:40:51.016Z,99.75
2019-03-11T01:41:51.018Z,99.65
2019-03-11T01:42:51.937Z,99.75
2019-03-11T01:43:51.000Z,99.75
2019-03-11T01:44:50.982Z,99.65
2019-03-11T01:45:51.009Z,99.65
2019-03-11T01:46:50.956Z,99.33
2019-03-11T01:47:50.969Z,99.54
2019-03-11T01:48:50.929Z,99.23
2019-03-11T01:49:50.921Z,98.92
2019-03-11T01:50:50.911Z,99.13
2019-03-11T01:51:50.895Z,98.60
2019-03-11T01:52:50.883Z,97.62
2019-03-11T01:53:50.908Z,97.52
2019-03-11T01:54:50.865Z,96.79
2019-03-11T01:55:50.852Z,96.69
2019-03-11T01:56:50.852Z,96.16
2019-03-11T01:57:50.832Z,96.16
2019-03-11T01:58:50.819Z,97.14
2019-03-11T01:59:50.838Z,97.25
2019-03-11T02:00:50.797Z,96.21
2019-03-11T02:01:50.795Z,96.31
2019-03-11T02:02:50.781Z,97.04
2019-03-11T02:03:50.769Z,96.88
2019-03-11T02:04:50.753Z,97.40
2019-03-11T02:05:50.753Z,97.14
2019-03-11T02:06:50.730Z,96.83
2019-03-11T02:07:50.719Z,96.77
2019-03-11T02:08:50.712Z,96.88
2019-03-11T02:09:50.695Z,97.09
2019-03-11T02:10:50.696Z,97.19
2019-03-11T02:11:50.706Z,97.44
2019-03-11T02:12:50.662Z,97.61
2019-03-11T02:13:50.651Z,97.30
2019-03-11T02:14:50.651Z,97.34
2019-03-11T02:15:50.629Z,97.65
2019-03-11T02:16:50.621Z,97.55
2019-03-11T02:17:50.642Z,97.86
2019-03-11T02:18:50.596Z,97.75
2019-03-11T02:19:50.587Z,97.55
2019-03-11T02:20:50.583Z,97.55
2019-03-11T02:21:50.563Z,97.86
2019-03-11T02:22:50.552Z,97.97
2019-03-11T02:23:50.555Z,97.75
2019-03-11T02:24:50.530Z,97.03
2019-03-11T02:25:50.522Z,97.44
2019-03-11T02:26:50.516Z,97.86
2019-03-11T02:27:50.500Z,97.86
2019-03-11T02:28:50.498Z,96.88
2019-03-11T02:29:50.475Z,96.77
2019-03-11T02:30:50.471Z,97.13
2019-03-11T02:31:50.463Z,97.19
2019-03-11T02:32:50.461Z,96.56
2019-03-11T02:33:50.515Z,97.34
2019-03-11T02:34:50.419Z,97.44
2019-03-11T02:35:50.409Z,97.13
2019-03-11T02:36:50.436Z,97.24
2019-03-11T02:37:50.389Z,97.34
2019-03-11T02:38:50.379Z,97.34
2019-03-11T02:39:50.380Z,96.82
2019-03-11T02:40:50.353Z,97.13
2019-03-11T02:41:50.341Z,97.03
2019-03-11T02:42:50.347Z,97.13
2019-03-11T02:43:50.334Z,96.50
2019-03-11T02:44:50.338Z,96.36
2019-03-11T02:45:50.298Z,96.50
2019-03-11T02:46:50.291Z,96.50
2019-03-11T02:47:50.278Z,96.25
2019-03-11T02:48:50.289Z,96.56
2019-03-11T02:49:50.258Z,95.88
2019-03-11T02:50:50.253Z,95.42
2019-03-11T02:51:50.240Z,96.61
2019-03-11T02:52:50.265Z,96.36
2019-03-11T02:53:50.215Z,96.25
2019-03-11T02:54:50.208Z,96.50
2019-03-11T02:55:51.230Z,96.50
2019-03-11T02:56:50.189Z,96.04
2019-03-11T02:57:50.166Z,96.36
2019-03-11T02:58:50.177Z,96.04
2019-03-11T02:59:50.152Z,96.04
2019-03-11T03:00:50.157Z,96.19
2019-03-11T03:01:50.162Z,95.31
2019-03-11T03:02:50.146Z,95.83
2019-03-11T03:03:50.102Z,95.62
2019-03-11T03:04:50.088Z,95.62
2019-03-11T03:05:50.077Z,95.83
2019-03-11T03:06:50.066Z,96.36
2019-03-11T03:07:50.066Z,95.83
2019-03-11T03:08:50.088Z,95.83
2019-03-11T03:09:50.030Z,96.40
2019-03-11T03:10:50.022Z,96.15
2019-03-11T03:11:50.012Z,96.46
2019-03-11T03:12:49.997Z,95.56
2019-03-11T03:13:49.988Z,95.56
2019-03-11T03:14:50.003Z,95.83
2019-03-11T03:15:49.966Z,95.56
2019-03-11T03:16:49.958Z,95.83
2019-03-11T03:17:49.941Z,96.09
2019-03-11T03:18:49.932Z,96.40
2019-03-11T03:19:49.946Z,96.40
2019-03-11T03:20:49.947Z,95.67
2019-03-11T03:21:49.898Z,95.88
2019-03-11T03:22:49.887Z,96.30
2019-03-11T03:23:49.890Z,95.88
2019-03-11T03:24:49.873Z,97.03
2019-03-11T03:25:49.871Z,96.61
2019-03-11T03:26:49.847Z,97.03
2019-03-11T03:27:49.977Z,97.13
2019-03-11T03:28:49.823Z,97.03
2019-03-11T03:29:49.812Z,97.03
2019-03-11T03:30:49.821Z,95.98
2019-03-11T03:31:49.926Z,97.03
2019-03-11T03:32:49.790Z,96.40
2019-03-11T03:33:49.769Z,96.77
2019-03-11T03:34:49.756Z,97.13
2019-03-11T03:35:49.744Z,97.13
2019-03-11T03:36:49.735Z,97.34
2019-03-11T03:37:49.733Z,96.92
2019-03-11T03:38:49.719Z,96.98
2019-03-11T03:39:49.701Z,97.24
2019-03-11T03:40:49.700Z,97.09
2019-03-11T03:41:49.678Z,96.88
2019-03-11T03:42:49.770Z,97.61
2019-03-11T03:43:49.656Z,97.09
2019-03-11T03:44:49.651Z,96.98
2019-03-11T03:45:49.633Z,97.61
2019-03-11T03:46:49.630Z,96.98
2019-03-11T03:47:49.612Z,97.65
2019-03-11T03:48:49.889Z,97.44
2019-03-11T03:49:49.602Z,97.13
2019-03-11T03:50:49.611Z,97.13
2019-03-11T03:51:49.568Z,97.86
2019-03-11T03:52:49.560Z,98.07
2019-03-11T03:53:49.545Z,97.55
2019-03-11T03:54:49.545Z,97.71
2019-03-11T03:55:49.525Z,97.71
2019-03-11T03:56:49.523Z,96.88
2019-03-11T03:57:49.503Z,96.77
2019-03-11T03:58:49.490Z,97.03
2019-03-11T03:59:49.493Z,97.03
2019-03-11T04:00:49.467Z,96.77
2019-03-11T04:01:49.456Z,96.98
2019-03-11T04:02:49.470Z,97.13
2019-03-11T04:03:49.435Z,96.98
2019-03-11T04:04:49.464Z,97.09
2019-03-11T04:05:49.413Z,96.56
2019-03-11T04:06:49.402Z,96.46
2019-03-11T04:07:49.397Z,96.42
2019-03-11T04:08:49.390Z,96.46
2019-03-11T04:09:49.370Z,96.25
2019-03-11T04:10:49.407Z,95.42
2019-03-11T04:11:49.349Z,95.48
2019-03-11T04:12:49.339Z,95.79
2019-03-11T04:13:49.330Z,95.68
2019-03-11T04:14:49.326Z,95.68
2019-03-11T04:15:49.303Z,96.31
2019-03-11T04:16:49.302Z,96.42
2019-03-11T04:17:49.281Z,96.31
2019-03-11T04:18:49.294Z,95.58
2019-03-11T04:19:49.291Z,96.31
2019-03-11T04:20:49.262Z,95.54
2019-03-11T04:21:49.263Z,96.00
2019-03-11T04:22:49.237Z,95.64
2019-03-11T04:23:49.223Z,95.85
2019-03-11T04:24:49.205Z,94.81
2019-03-11T04:25:49.190Z,95.95
2019-03-11T04:26:49.189Z,95.75
2019-03-11T04:27:49.191Z,94.92
2019-03-11T04:28:49.157Z,94.92
2019-03-11T04:29:49.146Z,95.64
2019-03-11T04:30:49.137Z,95.43
2019-03-11T04:31:49.124Z,95.95
2019-03-11T04:32:49.137Z,95.43
2019-03-11T04:33:49.103Z,96.01
2019-03-11T04:34:49.133Z,95.95
2019-03-11T04:35:49.081Z,95.75
2019-03-11T04:36:49.069Z,95.64
2019-03-11T04:37:49.092Z,97.10
2019-03-11T04:38:49.061Z,96.16
2019-03-11T04:39:49.041Z,96.16
2019-03-11T04:40:49.026Z,96.69
2019-03-11T04:41:49.014Z,96.89
2019-03-11T04:42:49.002Z,97.35
2019-03-11T04:43:49.005Z,96.52
2019-03-11T04:44:49.022Z,97.56
2019-03-11T04:45:48.969Z,97.46
2019-03-11T04:46:48.958Z,97.67
2019-03-11T04:47:48.947Z,97.25
2019-03-11T04:48:48.935Z,97.25
2019-03-11T04:49:48.926Z,96.73
2019-03-11T04:50:48.940Z,96.62
2019-03-11T04:51:48.902Z,97.35
2019-03-11T04:52:48.899Z,97.25
2019-03-11T04:53:48.881Z,97.88
2019-03-11T04:54:48.872Z,97.88
2019-03-11T04:55:48.895Z,97.67
2019-03-11T04:56:48.856Z,98.08
2019-03-11T04:57:48.836Z,97.88
2019-03-11T04:58:48.825Z,98.08
2019-03-11T04:59:48.814Z,98.02
2019-03-11T05:00:48.804Z,97.88
2019-03-11T05:01:48.806Z,98.34
2019-03-11T05:02:48.789Z,98.39
2019-03-11T05:03:48.780Z,98.75
2019-03-11T05:04:48.761Z,98.13
2019-03-11T05:05:48.762Z,98.55
2019-03-11T05:06:48.738Z,98.55
2019-03-11T05:07:48.724Z,98.75
2019-03-11T05:08:48.723Z,98.23
2019-03-11T05:09:48.703Z,98.86
2019-03-11T05:10:48.706Z,98.44
2019-03-11T05:11:48.681Z,98.69
2019-03-11T05:12:48.710Z,98.65
2019-03-11T05:13:48.664Z,98.55
2019-03-11T05:14:48.655Z,98.44
2019-03-11T05:15:48.637Z,98.49
2019-03-11T05:16:48.628Z,98.34
2019-03-11T05:17:48.981Z,98.13
2019-03-11T05:18:48.617Z,98.96
2019-03-11T05:19:48.599Z,98.75
2019-03-11T05:20:48.588Z,98.75
2019-03-11T05:21:48.573Z,98.75
2019-03-11T05:22:48.584Z,98.55
2019-03-11T05:23:48.579Z,98.49
2019-03-11T05:24:48.542Z,98.49
2019-03-11T05:25:48.525Z,98.28
2019-03-11T05:26:48.521Z,98.59
2019-03-11T05:27:48.505Z,98.49
2019-03-11T05:28:49.507Z,98.28
2019-03-11T05:29:48.511Z,98.90
2019-03-11T05:30:48.473Z,98.49
2019-03-11T05:31:48.459Z,98.49
2019-03-11T05:32:48.452Z,98.59
2019-03-11T05:33:48.444Z,98.28
2019-03-11T05:34:48.433Z,98.38
2019-03-11T05:35:48.429Z,98.28
2019-03-11T05:36:48.407Z,98.49
2019-03-11T05:37:48.396Z,98.85
2019-03-11T05:38:48.389Z,98.80
2019-03-11T05:39:48.373Z,98.63
2019-03-11T05:40:48.379Z,98.49
2019-03-11T05:41:48.351Z,98.22
2019-03-11T05:42:48.341Z,98.32
2019-03-11T05:43:48.343Z,98.43
2019-03-11T05:44:48.323Z,98.53
2019-03-11T05:45:48.375Z,98.85
2019-03-11T05:46:48.296Z,98.43
2019-03-11T05:47:48.298Z,98.95
2019-03-11T05:48:48.273Z,99.05
2019-03-11T05:49:48.263Z,99.16
2019-03-11T05:50:48.256Z,98.95
2019-03-11T05:51:48.240Z,99.16
2019-03-11T05:52:48.256Z,99.31
2019-03-11T05:53:48.226Z,99.57
2019-03-11T05:54:48.207Z,99.47
2019-03-11T05:55:48.213Z,99.05
2019-03-11T05:56:48.190Z,99.68
2019-03-11T05:57:48.187Z,99.68
2019-03-11T05:58:48.163Z,99.47
2019-03-11T05:59:48.150Z,99.47
2019-03-11T06:00:48.153Z,98.95
2019-03-11T06:01:48.131Z,99.26
2019-03-11T06:02:48.122Z,99.47
2019-03-11T06:03:48.146Z,99.37
2019-03-11T06:04:48.098Z,99.16
2019-03-11T06:05:48.085Z,99.37
2019-03-11T06:06:48.076Z,99.57
2019-03-11T06:07:48.063Z,99.57
2019-03-11T06:08:48.061Z,99.68
2019-03-11T06:09:48.152Z,99.05
2019-03-11T06:10:48.040Z,99.68
2019-03-11T06:11:48.021Z,99.05
2019-03-11T06:12:48.008Z,98.59
2019-03-11T06:13:47.996Z,98.53
2019-03-11T06:14:47.988Z,98.63
2019-03-11T06:15:48.011Z,98.43
2019-03-11T06:16:47.965Z,98.43
2019-03-11T06:17:48.108Z,98.85
2019-03-11T06:18:47.945Z,98.53
2019-03-11T06:19:47.939Z,98.63
2019-03-11T06:20:47.919Z,98.49
2019-03-11T06:21:47.928Z,98.59
2019-03-11T06:22:47.896Z,98.80
2019-03-11T06:23:47.889Z,98.90
2019-03-11T06:24:47.878Z,98.49
2019-03-11T06:25:47.867Z,98.18
2019-03-11T06:26:47.867Z,98.59
2019-03-11T06:27:47.858Z,98.38
2019-03-11T06:28:47.831Z,98.38
2019-03-11T06:29:47.823Z,98.80
2019-03-11T06:30:47.809Z,98.49
2019-03-11T06:31:47.818Z,98.38
2019-03-11T06:32:47.798Z,98.18
2019-03-11T06:33:47.782Z,98.75
2019-03-11T06:34:47.765Z,98.13
2019-03-11T06:35:47.759Z,98.02
2019-03-11T06:36:47.776Z,97.65
2019-03-11T06:37:47.732Z,97.24
2019-03-11T06:38:47.751Z,97.30
2019-03-11T06:39:47.721Z,97.61
2019-03-11T06:40:47.722Z,96.77
2019-03-11T06:41:47.686Z,96.36
2019-03-11T06:42:47.675Z,96.36
2019-03-11T06:43:47.665Z,97.14
2019-03-11T06:44:47.666Z,97.14
2019-03-11T06:45:47.648Z,95.79
2019-03-11T06:46:47.631Z,96.11
2019-03-11T06:47:47.621Z,96.00
2019-03-11T06:48:47.634Z,96.42
2019-03-11T06:49:47.603Z,96.00
2019-03-11T06:50:47.597Z,96.31
2019-03-11T06:51:47.583Z,95.89
2019-03-11T06:52:47.566Z,95.79
2019-03-11T06:53:47.556Z,96.42
2019-03-11T06:54:47.571Z,95.58
2019-03-11T06:55:47.531Z,95.48
2019-03-11T06:56:47.522Z,95.79
2019-03-11T06:57:47.516Z,95.64
2019-03-11T06:58:47.499Z,95.43
2019-03-11T06:59:47.489Z,95.64
2019-03-11T07:00:47.489Z,95.75
2019-03-11T07:01:47.482Z,95.54
2019-03-11T07:02:47.480Z,95.64
2019-03-11T07:03:47.450Z,95.54
2019-03-11T07:04:47.465Z,95.64
2019-03-11T07:05:47.421Z,95.64
2019-03-11T07:06:47.409Z,96.16
2019-03-11T07:07:47.398Z,95.75
2019-03-11T07:08:47.386Z,94.70
2019-03-11T07:09:47.384Z,94.24
2019-03-11T07:10:47.378Z,94.87
2019-03-11T07:11:47.375Z,94.04
2019-03-11T07:12:47.344Z,94.35
2019-03-11T07:13:47.330Z,94.14
2019-03-11T07:14:47.322Z,95.18
2019-03-11T07:15:47.333Z,94.24
2019-03-11T07:16:47.298Z,94.76
2019-03-11T07:17:47.294Z,94.87
2019-03-11T07:18:47.277Z,95.08
2019-03-11T07:19:47.269Z,94.51
2019-03-11T07:20:47.292Z,94.87
2019-03-11T07:21:47.248Z,94.10
2019-03-11T07:22:47.239Z,94.31
2019-03-11T07:23:47.220Z,94.24
2019-03-11T07:24:47.208Z,93.89
2019-03-11T07:25:47.199Z,94.41
2019-03-11T07:26:47.242Z,93.83
2019-03-11T07:27:47.175Z,92.43
2019-03-11T07:28:47.172Z,93.05
2019-03-11T07:29:47.162Z,92.70
2019-03-11T07:30:47.142Z,93.43
2019-03-11T07:31:47.148Z,92.80
2019-03-11T07:32:47.135Z,93.12
2019-03-11T07:33:47.111Z,93.01
2019-03-11T07:34:47.103Z,91.83
2019-03-11T07:35:47.089Z,92.91
2019-03-11T07:36:47.087Z,91.93
2019-03-11T07:37:47.127Z,91.52
2019-03-11T07:38:47.055Z,92.76
2019-03-11T07:39:47.043Z,91.72
2019-03-11T07:40:47.033Z,92.55
2019-03-11T07:41:47.022Z,92.03
2019-03-11T07:42:47.010Z,91.52
2019-03-11T07:43:47.042Z,90.33
2019-03-11T07:44:47.011Z,90.23
2019-03-11T07:45:46.979Z,90.95
2019-03-11T07:46:46.965Z,91.58
2019-03-11T07:47:46.955Z,91.47
2019-03-11T07:48:46.947Z,90.70
2019-03-11T07:49:46.968Z,91.22
2019-03-11T07:50:46.928Z,89.77
2019-03-11T07:51:46.911Z,88.21
2019-03-11T07:52:46.899Z,88.84
2019-03-11T07:53:46.888Z,88.07
2019-03-11T07:54:46.875Z,89.11
2019-03-11T07:55:46.878Z,89.42
2019-03-11T07:56:46.862Z,88.07
2019-03-11T07:57:46.844Z,88.44
2019-03-11T07:58:46.885Z,88.28
2019-03-11T07:59:46.864Z,86.61
2019-03-11T08:00:53.986Z,88.07
2019-03-11T08:01:47.798Z,88.28
2019-03-11T08:02:46.800Z,88.17
2019-03-11T08:03:46.777Z,88.17
2019-03-11T08:04:46.765Z,88.54
2019-03-11T08:05:46.768Z,88.13
2019-03-11T08:06:46.744Z,87.92
2019-03-11T08:07:46.764Z,87.61
2019-03-11T08:08:46.724Z,87.47
2019-03-11T08:09:46.723Z,87.99
2019-03-11T08:10:46.699Z,88.05
2019-03-11T08:11:46.700Z,86.54
2019-03-11T08:12:46.678Z,87.22
2019-03-11T08:13:46.666Z,86.33
2019-03-11T08:14:46.658Z,85.97
2019-03-11T08:15:46.654Z,87.01
2019-03-11T08:16:46.631Z,88.05
2019-03-11T08:17:46.648Z,85.46
2019-03-11T08:18:46.616Z,85.29
2019-03-11T08:19:46.606Z,84.73
2019-03-11T08:20:46.589Z,86.33
2019-03-11T08:21:46.582Z,86.22
2019-03-11T08:22:46.563Z,85.19
2019-03-11T08:23:46.587Z,86.33
2019-03-11T08:24:46.541Z,86.05
2019-03-11T08:25:46.531Z,85.43
2019-03-11T08:26:46.517Z,84.60
2019-03-11T08:27:46.520Z,84.81
2019-03-11T08:28:46.505Z,84.29
2019-03-11T08:29:46.496Z,85.53
2019-03-11T08:30:46.474Z,85.16
2019-03-11T08:31:46.464Z,84.74
2019-03-11T08:32:46.453Z,86.05
2019-03-11T08:33:46.445Z,84.81
2019-03-11T08:34:46.470Z,85.36
2019-03-11T08:35:46.416Z,86.41
2019-03-11T08:36:46.406Z,86.93
2019-03-11T08:37:46.393Z,87.24
2019-03-11T08:38:46.390Z,86.41
2019-03-11T08:39:46.372Z,86.24
2019-03-11T08:40:46.391Z,85.57
2019-03-11T08:41:46.350Z,86.86
2019-03-11T08:42:46.338Z,88.10
2019-03-11T08:43:46.328Z,86.86
2019-03-11T08:44:46.319Z,86.03
2019-03-11T08:45:46.319Z,87.27
2019-03-11T08:46:46.302Z,84.68
2019-03-11T08:47:46.283Z,85.61
2019-03-11T08:48:46.273Z,84.05
2019-03-11T08:49:46.262Z,86.76
2019-03-11T08:50:46.263Z,86.55
2019-03-11T08:51:46.240Z,84.99
2019-03-11T08:52:46.234Z,85.61
2019-03-11T08:53:46.218Z,84.89
2019-03-11T08:54:46.205Z,86.24
2019-03-11T08:55:46.228Z,88.42
2019-03-11T08:56:46.184Z,85.93
2019-03-11T08:57:46.175Z,85.61
2019-03-11T08:58:46.172Z,86.86
2019-03-11T08:59:46.151Z,86.86
2019-03-11T09:00:46.142Z,86.96
2019-03-11T09:01:46.140Z,86.96
2019-03-11T09:02:46.119Z,87.48
2019-03-11T09:03:47.890Z,86.55
2019-03-11T09:04:46.100Z,85.10
2019-03-11T09:05:46.100Z,84.89
2019-03-11T09:06:46.072Z,86.44
2019-03-11T09:07:46.071Z,84.89
2019-03-11T09:08:46.089Z,85.41
2019-03-11T09:09:46.039Z,84.99
2019-03-11T09:10:46.044Z,85.68
2019-03-11T09:11:46.019Z,86.30
2019-03-11T09:12:46.008Z,86.72
2019-03-11T09:13:45.995Z,85.99
2019-03-11T09:14:45.997Z,85.68
2019-03-11T09:15:45.987Z,85.99
2019-03-11T09:16:45.970Z,86.68
2019-03-11T09:17:45.949Z,86.05
2019-03-11T09:18:45.941Z,86.68
2019-03-11T09:19:45.931Z,86.26
2019-03-11T09:20:45.936Z,86.47
2019-03-11T09:21:45.912Z,85.02
2019-03-11T09:22:45.900Z,84.91
2019-03-11T09:23:45.883Z,84.29
2019-03-11T09:24:45.871Z,85.33
2019-03-11T09:25:45.912Z,85.33
2019-03-11T09:26:45.851Z,86.26
2019-03-11T09:27:45.842Z,85.64
2019-03-11T09:28:45.826Z,85.43
2019-03-11T09:29:45.816Z,86.47
2019-03-11T09:30:45.828Z,86.47
2019-03-11T09:31:45.894Z,84.60
2019-03-11T09:32:45.781Z,85.12
2019-03-11T09:33:45.773Z,84.81
2019-03-11T09:34:45.761Z,84.29
2019-03-11T09:35:45.748Z,84.39
2019-03-11T09:36:45.736Z,85.02
2019-03-11T09:37:45.765Z,85.02
2019-03-11T09:38:45.745Z,84.56
2019-03-11T09:39:45.725Z,84.88
2019-03-11T09:40:45.700Z,86.02
2019-03-11T09:41:45.680Z,84.67
2019-03-11T09:42:45.667Z,85.19
2019-03-11T09:43:45.681Z,84.67
2019-03-11T09:44:45.652Z,85.08
2019-03-11T09:45:45.634Z,86.18
2019-03-11T09:46:45.635Z,84.31
2019-03-11T09:47:45.614Z,84.21
2019-03-11T09:48:45.601Z,84.69
2019-03-11T09:49:45.603Z,83.69
2019-03-11T09:50:45.581Z,83.86
2019-03-11T09:51:45.568Z,82.82
2019-03-11T09:52:45.569Z,82.82
2019-03-11T09:53:45.582Z,84.28
2019-03-11T09:54:45.540Z,83.65
2019-03-11T09:55:45.521Z,83.48
2019-03-11T09:56:45.510Z,84.11
2019-03-11T09:57:45.503Z,84.11
2019-03-11T09:58:45.497Z,83.17
2019-03-11T09:59:45.496Z,82.97
2019-03-11T10:00:45.470Z,82.07
2019-03-11T10:01:45.470Z,82.65
2019-03-11T10:02:52.218Z,82.45
2019-03-11T10:03:46.433Z,84.11
2019-03-11T10:04:45.441Z,84.21
2019-03-11T10:05:45.410Z,82.86
2019-03-11T10:06:45.399Z,83.80
2019-03-11T10:07:45.418Z,83.24
2019-03-11T10:08:45.384Z,83.97
2019-03-11T10:09:45.380Z,83.93
2019-03-11T10:10:45.381Z,83.51
2019-03-11T10:11:45.344Z,83.26
2019-03-11T10:12:45.332Z,82.86
2019-03-11T10:13:45.323Z,82.29
2019-03-11T10:14:45.347Z,81.05
2019-03-11T10:15:45.297Z,81.57
2019-03-11T10:16:45.296Z,81.05
2019-03-11T10:17:45.277Z,83.75
2019-03-11T10:18:45.265Z,81.57
2019-03-11T10:19:45.254Z,83.85
2019-03-11T10:20:45.264Z,82.71
2019-03-11T10:21:45.231Z,83.12
2019-03-11T10:22:45.228Z,82.81
2019-03-11T10:23:45.210Z,83.58
2019-03-11T10:24:45.199Z,84.61
2019-03-11T10:25:45.194Z,84.13
2019-03-11T10:26:45.189Z,84.65
2019-03-11T10:27:45.164Z,84.17
2019-03-11T10:28:45.156Z,85.56
2019-03-11T10:29:45.158Z,85.21
2019-03-11T10:30:45.129Z,86.04
2019-03-11T10:31:45.152Z,84.07
2019-03-11T10:32:45.110Z,84.41
2019-03-11T10:33:45.107Z,84.41
2019-03-11T10:34:45.085Z,85.92
2019-03-11T10:35:45.081Z,83.68
2019-03-11T10:36:45.077Z,82.03
2019-03-11T10:37:45.054Z,84.58
2019-03-11T10:38:45.043Z,84.68
2019-03-11T10:39:47.706Z,85.09
2019-03-11T10:40:45.057Z,84.16
2019-03-11T10:41:45.013Z,85.05
2019-03-11T10:42:44.996Z,83.61
2019-03-11T10:43:44.990Z,84.12
2019-03-11T10:44:44.974Z,84.53
2019-03-11T10:45:44.965Z,83.81
2019-03-11T10:46:45.177Z,83.12
2019-03-11T10:47:44.968Z,82.81
2019-03-11T10:48:44.932Z,84.16
2019-03-11T10:49:44.919Z,82.92
2019-03-11T10:50:44.918Z,83.85
2019-03-11T10:51:44.920Z,83.78
2019-03-11T10:52:44.893Z,83.75
2019-03-11T10:53:44.880Z,85.03
2019-03-11T10:54:44.863Z,85.65
2019-03-11T10:55:44.853Z,83.37
2019-03-11T10:56:44.840Z,85.03
2019-03-11T10:57:44.843Z,84.72
2019-03-11T10:58:44.819Z,84.68
2019-03-11T10:59:44.811Z,84.92
2019-03-11T11:00:44.799Z,83.89
2019-03-11T11:01:44.785Z,84.47
2019-03-11T11:02:44.811Z,84.78
2019-03-11T11:03:44.762Z,83.85
2019-03-11T11:04:44.751Z,83.33
2019-03-11T11:05:44.743Z,83.81
2019-03-11T11:06:44.726Z,84.33
2019-03-11T11:07:44.716Z,82.98
2019-03-11T11:08:44.718Z,82.15
2019-03-11T11:09:44.693Z,83.61
2019-03-11T11:10:44.684Z,82.15
2019-03-11T11:11:44.711Z,82.78
2019-03-11T11:12:44.661Z,82.15
2019-03-11T11:13:44.652Z,83.15
2019-03-11T11:14:44.644Z,82.84
2019-03-11T11:15:44.627Z,83.77
2019-03-11T11:16:46.442Z,83.77
2019-03-11T11:17:44.630Z,81.29
2019-03-11T11:18:44.628Z,82.01
2019-03-11T11:19:44.583Z,82.01
2019-03-11T11:20:44.571Z,83.46
2019-03-11T11:21:44.567Z,82.80
2019-03-11T11:22:44.551Z,80.67
2019-03-11T11:23:44.586Z,82.53
2019-03-11T11:24:44.526Z,80.98
2019-03-11T11:25:44.513Z,82.39
2019-03-11T11:26:44.504Z,81.46
2019-03-11T11:27:44.490Z,82.22
2019-03-11T11:28:44.480Z,80.08
2019-03-11T11:29:44.489Z,81.02
2019-03-11T11:30:44.457Z,81.95
2019-03-11T11:31:44.448Z,80.08
2019-03-11T11:32:44.441Z,81.47
2019-03-11T11:33:44.423Z,81.05
2019-03-11T11:34:44.435Z,83.44
2019-03-11T11:35:44.409Z,82.75
2019-03-11T11:36:44.391Z,82.23
2019-03-11T11:37:44.378Z,81.44
2019-03-11T11:38:44.370Z,83.06
2019-03-11T11:39:44.355Z,84.23
2019-03-11T11:40:44.367Z,83.00
2019-03-11T11:41:44.368Z,83.31
2019-03-11T11:42:44.323Z,83.20
2019-03-11T11:43:44.312Z,83.55
2019-03-11T11:44:44.302Z,84.75
2019-03-11T11:45:44.289Z,84.80
2019-03-11T11:46:44.278Z,85.21
2019-03-11T11:47:44.290Z,85.46
2019-03-11T11:48:44.265Z,86.25
2019-03-11T11:49:44.247Z,87.95
2019-03-11T11:50:44.233Z,86.08
2019-03-11T11:51:44.226Z,87.38
2019-03-11T11:52:44.227Z,88.67
2019-03-11T11:53:44.207Z,87.70
2019-03-11T11:54:44.190Z,87.22
2019-03-11T11:55:44.176Z,86.39
2019-03-11T11:56:44.165Z,86.39
2019-03-11T11:57:44.166Z,86.66
2019-03-11T11:58:44.151Z,86.55
2019-03-11T11:59:53.548Z,86.41
2019-03-11T12:00:45.123Z,85.03
2019-03-11T12:01:44.113Z,84.61
2019-03-11T12:02:44.143Z,84.41
2019-03-11T12:03:44.086Z,84.06
2019-03-11T12:04:44.076Z,83.37
2019-03-11T12:05:44.072Z,83.89
2019-03-11T12:06:44.058Z,84.47
2019-03-11T12:07:44.048Z,83.89
2019-03-11T12:08:44.056Z,84.27
2019-03-11T12:09:44.018Z,84.92
2019-03-11T12:10:44.008Z,83.58
2019-03-11T12:11:43.997Z,84.68
2019-03-11T12:12:43.988Z,82.81
2019-03-11T12:13:43.975Z,83.50
2019-03-11T12:14:43.997Z,81.64
2019-03-11T12:15:43.951Z,83.87
2019-03-11T12:16:43.942Z,80.81
2019-03-11T12:17:43.928Z,81.29
2019-03-11T12:18:43.932Z,82.53
2019-03-11T12:19:43.909Z,82.01
2019-03-11T12:20:43.909Z,81.25
2019-03-11T12:21:43.884Z,79.70
2019-03-11T12:22:43.874Z,79.53
2019-03-11T12:23:46.637Z,80.74
2019-03-11T12:24:43.861Z,80.67
2019-03-11T12:25:43.852Z,81.35
2019-03-11T12:26:43.835Z,81.05
2019-03-11T12:27:53.036Z,80.63
2019-03-11T12:28:44.803Z,80.11
2019-03-11T12:29:43.796Z,79.77
2019-03-11T12:30:43.802Z,79.70
2019-03-11T12:31:43.788Z,80.22
2019-03-11T12:32:43.760Z,83.11
2019-03-11T12:33:43.751Z,82.76
2019-03-11T12:34:43.739Z,81.11
2019-03-11T12:35:43.735Z,80.46
2019-03-11T12:36:43.734Z,82.42
2019-03-11T12:37:43.710Z,79.11
2019-03-11T12:38:43.700Z,81.14
2019-03-11T12:39:43.683Z,79.18
2019-03-11T12:40:43.671Z,78.28
2019-03-11T12:41:43.696Z,78.56
2019-03-11T12:42:43.650Z,79.38
2019-03-11T12:43:43.637Z,79.14
2019-03-11T12:44:43.632Z,79.04
2019-03-11T12:45:43.615Z,76.39
2019-03-11T12:46:43.603Z,77.22
2019-03-11T12:47:43.609Z,77.25
2019-03-11T12:48:43.582Z,78.28
2019-03-11T12:49:43.579Z,76.43
2019-03-11T12:50:43.565Z,79.32
2019-03-11T12:51:49.681Z,78.80
2019-03-11T12:52:44.572Z,82.76